sensor_id;sensor_type;location;lat;lon;timestamp;P1;durP1;ratioP1;P2;durP2;ratioP2
31336;SDS011;22846;42.654;23.314;2022-12-18T00:02:08;18.67;;;13.93;;
31336;SDS011;22846;42.654;23.314;2022-12-18T00:04:33;20.30;;;13.88;;
31336;SDS011;22846;42.654;23.314;2022-12-18T00:06:59;16.42;;;12.70;;
31336;SDS011;22846;42.654;23.314;2022-12-18T00:09:24;18.17;;;13.65;;
31336;SDS011;22846;42.654;23.314;2022-12-18T00:11:49;16.75;;;12.57;;
31336;SDS011;22846;42.654;23.314;2022-12-18T00:14:15;18.00;;;12.80;;
31336;SDS011;22846;42.654;23.314;2022-12-18T00:16:43;15.27;;;12.00;;
31336;SDS011;22846;42.654;23.314;2022-12-18T00:19:09;14.60;;;11.52;;
31336;SDS011;22846;42.654;23.314;2022-12-18T00:21:35;14.63;;;11.57;;
31336;SDS011;22846;42.654;23.314;2022-12-18T00:24:00;14.48;;;11.60;;
31336;SDS011;22846;42.654;23.314;2022-12-18T00:26:30;14.73;;;11.15;;
31336;SDS011;22846;42.654;23.314;2022-12-18T00:29:05;15.18;;;11.65;;
31336;SDS011;22846;42.654;23.314;2022-12-18T00:31:41;13.10;;;10.85;;
31336;SDS011;22846;42.654;23.314;2022-12-18T00:34:11;13.60;;;10.35;;
31336;SDS011;22846;42.654;23.314;2022-12-18T00:36:38;12.73;;;10.07;;
31336;SDS011;22846;42.654;23.314;2022-12-18T00:39:04;14.43;;;11.23;;
31336;SDS011;22846;42.654;23.314;2022-12-18T00:41:30;12.98;;;10.00;;
31336;SDS011;22846;42.654;23.314;2022-12-18T00:44:16;13.35;;;10.48;;
31336;SDS011;22846;42.654;23.314;2022-12-18T00:46:43;12.80;;;10.20;;
31336;SDS011;22846;42.654;23.314;2022-12-18T00:49:09;12.18;;;9.65;;
31336;SDS011;22846;42.654;23.314;2022-12-18T00:51:35;13.07;;;9.40;;
31336;SDS011;22846;42.654;23.314;2022-12-18T00:54:00;11.88;;;9.13;;
31336;SDS011;22846;42.654;23.314;2022-12-18T00:56:26;14.57;;;9.90;;
31336;SDS011;22846;42.654;23.314;2022-12-18T00:58:51;11.25;;;8.60;;
31336;SDS011;22846;42.654;23.314;2022-12-18T01:01:17;10.57;;;8.82;;
31336;SDS011;22846;42.654;23.314;2022-12-18T01:03:42;10.15;;;8.15;;
31336;SDS011;22846;42.654;23.314;2022-12-18T01:06:10;11.57;;;8.65;;
31336;SDS011;22846;42.654;23.314;2022-12-18T01:08:37;11.45;;;8.73;;
31336;SDS011;22846;42.654;23.314;2022-12-18T01:11:13;10.05;;;8.25;;
31336;SDS011;22846;42.654;23.314;2022-12-18T01:13:41;10.18;;;8.20;;
31336;SDS011;22846;42.654;23.314;2022-12-18T01:16:07;11.40;;;8.02;;
31336;SDS011;22846;42.654;23.314;2022-12-18T01:18:33;9.80;;;7.80;;
31336;SDS011;22846;42.654;23.314;2022-12-18T01:20:59;10.55;;;7.43;;
31336;SDS011;22846;42.654;23.314;2022-12-18T01:23:25;9.07;;;7.75;;
31336;SDS011;22846;42.654;23.314;2022-12-18T01:25:50;9.70;;;7.93;;
31336;SDS011;22846;42.654;23.314;2022-12-18T01:28:15;10.27;;;7.95;;
31336;SDS011;22846;42.654;23.314;2022-12-18T01:30:41;9.80;;;7.75;;
31336;SDS011;22846;42.654;23.314;2022-12-18T01:33:06;8.98;;;7.25;;
31336;SDS011;22846;42.654;23.314;2022-12-18T01:35:32;9.45;;;7.30;;
31336;SDS011;22846;42.654;23.314;2022-12-18T01:37:57;9.38;;;7.40;;
31336;SDS011;22846;42.654;23.314;2022-12-18T01:40:23;9.18;;;7.10;;
31336;SDS011;22846;42.654;23.314;2022-12-18T01:42:52;8.30;;;6.47;;
31336;SDS011;22846;42.654;23.314;2022-12-18T01:50:15;9.02;;;6.75;;
31336;SDS011;22846;42.654;23.314;2022-12-18T01:52:43;8.95;;;7.13;;
31336;SDS011;22846;42.654;23.314;2022-12-18T01:55:12;8.43;;;6.22;;
31336;SDS011;22846;42.654;23.314;2022-12-18T01:57:39;7.72;;;6.65;;
31336;SDS011;22846;42.654;23.314;2022-12-18T02:00:16;8.15;;;6.25;;
31336;SDS011;22846;42.654;23.314;2022-12-18T02:02:44;7.05;;;5.88;;
31336;SDS011;22846;42.654;23.314;2022-12-18T02:05:12;7.95;;;5.97;;
31336;SDS011;22846;42.654;23.314;2022-12-18T02:10:48;9.00;;;6.15;;
31336;SDS011;22846;42.654;23.314;2022-12-18T02:19:52;7.35;;;5.43;;
31336;SDS011;22846;42.654;23.314;2022-12-18T02:24:29;7.65;;;5.80;;
31336;SDS011;22846;42.654;23.314;2022-12-18T02:27:09;7.05;;;5.57;;
31336;SDS011;22846;42.654;23.314;2022-12-18T02:32:17;8.05;;;5.57;;
31336;SDS011;22846;42.654;23.314;2022-12-18T02:34:49;6.50;;;5.30;;
31336;SDS011;22846;42.654;23.314;2022-12-18T02:37:17;7.05;;;5.55;;
31336;SDS011;22846;42.654;23.314;2022-12-18T02:39:46;7.43;;;5.30;;
31336;SDS011;22846;42.654;23.314;2022-12-18T02:42:13;6.13;;;5.13;;
31336;SDS011;22846;42.654;23.314;2022-12-18T02:44:43;6.85;;;5.10;;
31336;SDS011;22846;42.654;23.314;2022-12-18T02:47:14;6.07;;;4.80;;
31336;SDS011;22846;42.654;23.314;2022-12-18T03:00:30;5.63;;;4.80;;
31336;SDS011;22846;42.654;23.314;2022-12-18T03:05:47;5.78;;;4.60;;
31336;SDS011;22846;42.654;23.314;2022-12-18T03:08:23;5.20;;;4.57;;
31336;SDS011;22846;42.654;23.314;2022-12-18T03:11:13;4.93;;;4.28;;
31336;SDS011;22846;42.654;23.314;2022-12-18T03:13:45;5.88;;;4.63;;
31336;SDS011;22846;42.654;23.314;2022-12-18T03:16:28;5.82;;;4.57;;
31336;SDS011;22846;42.654;23.314;2022-12-18T03:19:01;5.57;;;4.13;;
31336;SDS011;22846;42.654;23.314;2022-12-18T03:21:29;4.85;;;4.30;;
31336;SDS011;22846;42.654;23.314;2022-12-18T03:24:01;5.40;;;4.53;;
31336;SDS011;22846;42.654;23.314;2022-12-18T03:26:32;5.78;;;4.22;;
31336;SDS011;22846;42.654;23.314;2022-12-18T03:29:07;5.35;;;4.25;;
31336;SDS011;22846;42.654;23.314;2022-12-18T03:31:35;5.05;;;3.97;;
31336;SDS011;22846;42.654;23.314;2022-12-18T03:34:05;5.47;;;4.43;;
31336;SDS011;22846;42.654;23.314;2022-12-18T03:39:03;4.65;;;4.13;;
31336;SDS011;22846;42.654;23.314;2022-12-18T03:44:20;5.00;;;4.20;;
31336;SDS011;22846;42.654;23.314;2022-12-18T03:49:30;5.77;;;4.20;;
31336;SDS011;22846;42.654;23.314;2022-12-18T03:52:20;5.30;;;4.20;;
31336;SDS011;22846;42.654;23.314;2022-12-18T03:54:44;5.03;;;3.75;;
31336;SDS011;22846;42.654;23.314;2022-12-18T03:57:20;4.70;;;3.90;;
31336;SDS011;22846;42.654;23.314;2022-12-18T03:59:53;4.90;;;3.95;;
31336;SDS011;22846;42.654;23.314;2022-12-18T04:02:22;5.10;;;3.80;;
31336;SDS011;22846;42.654;23.314;2022-12-18T04:04:50;4.63;;;3.78;;
31336;SDS011;22846;42.654;23.314;2022-12-18T04:07:18;4.57;;;3.72;;
31336;SDS011;22846;42.654;23.314;2022-12-18T04:09:45;4.20;;;3.78;;
31336;SDS011;22846;42.654;23.314;2022-12-18T04:12:13;4.30;;;3.60;;
31336;SDS011;22846;42.654;23.314;2022-12-18T04:14:38;4.30;;;3.80;;
31336;SDS011;22846;42.654;23.314;2022-12-18T04:17:04;4.50;;;3.58;;
31336;SDS011;22846;42.654;23.314;2022-12-18T04:19:29;4.00;;;3.50;;
31336;SDS011;22846;42.654;23.314;2022-12-18T04:21:54;4.55;;;3.58;;
31336;SDS011;22846;42.654;23.314;2022-12-18T04:24:20;4.13;;;3.70;;
31336;SDS011;22846;42.654;23.314;2022-12-18T04:26:45;4.32;;;3.30;;
31336;SDS011;22846;42.654;23.314;2022-12-18T04:29:11;4.40;;;3.38;;
31336;SDS011;22846;42.654;23.314;2022-12-18T04:31:36;4.10;;;3.55;;
31336;SDS011;22846;42.654;23.314;2022-12-18T04:34:02;3.50;;;3.20;;
31336;SDS011;22846;42.654;23.314;2022-12-18T04:36:28;4.07;;;3.47;;
31336;SDS011;22846;42.654;23.314;2022-12-18T04:38:54;4.13;;;3.30;;
31336;SDS011;22846;42.654;23.314;2022-12-18T04:41:19;3.78;;;3.17;;
31336;SDS011;22846;42.654;23.314;2022-12-18T04:43:45;4.03;;;3.47;;
31336;SDS011;22846;42.654;23.314;2022-12-18T04:46:10;4.07;;;3.20;;
31336;SDS011;22846;42.654;23.314;2022-12-18T04:48:36;3.78;;;3.10;;
31336;SDS011;22846;42.654;23.314;2022-12-18T04:51:01;3.40;;;2.95;;
31336;SDS011;22846;42.654;23.314;2022-12-18T04:53:27;4.65;;;3.20;;
31336;SDS011;22846;42.654;23.314;2022-12-18T04:56:06;3.63;;;3.10;;
31336;SDS011;22846;42.654;23.314;2022-12-18T04:58:34;3.80;;;3.17;;
31336;SDS011;22846;42.654;23.314;2022-12-18T05:01:01;4.05;;;3.08;;
31336;SDS011;22846;42.654;23.314;2022-12-18T05:03:26;3.20;;;2.90;;
31336;SDS011;22846;42.654;23.314;2022-12-18T05:05:52;4.15;;;3.50;;
31336;SDS011;22846;42.654;23.314;2022-12-18T05:08:18;3.63;;;2.97;;
31336;SDS011;22846;42.654;23.314;2022-12-18T05:10:43;4.07;;;3.10;;
31336;SDS011;22846;42.654;23.314;2022-12-18T05:13:09;3.13;;;2.80;;
31336;SDS011;22846;42.654;23.314;2022-12-18T05:15:35;3.38;;;3.08;;
31336;SDS011;22846;42.654;23.314;2022-12-18T05:18:00;4.85;;;3.15;;
31336;SDS011;22846;42.654;23.314;2022-12-18T05:20:27;3.38;;;2.90;;
31336;SDS011;22846;42.654;23.314;2022-12-18T05:22:53;3.72;;;3.30;;
31336;SDS011;22846;42.654;23.314;2022-12-18T05:25:19;3.35;;;2.88;;
31336;SDS011;22846;42.654;23.314;2022-12-18T05:27:46;3.92;;;3.10;;
31336;SDS011;22846;42.654;23.314;2022-12-18T05:30:12;3.95;;;2.72;;
31336;SDS011;22846;42.654;23.314;2022-12-18T05:32:38;3.10;;;2.80;;
31336;SDS011;22846;42.654;23.314;2022-12-18T05:35:05;3.28;;;2.63;;
31336;SDS011;22846;42.654;23.314;2022-12-18T05:37:31;3.35;;;2.75;;
31336;SDS011;22846;42.654;23.314;2022-12-18T05:39:56;3.78;;;2.65;;
31336;SDS011;22846;42.654;23.314;2022-12-18T05:42:22;3.08;;;2.58;;
31336;SDS011;22846;42.654;23.314;2022-12-18T05:44:47;3.00;;;2.50;;
31336;SDS011;22846;42.654;23.314;2022-12-18T05:47:13;3.28;;;2.65;;
31336;SDS011;22846;42.654;23.314;2022-12-18T05:49:38;3.08;;;2.33;;
31336;SDS011;22846;42.654;23.314;2022-12-18T05:52:04;3.28;;;2.70;;
31336;SDS011;22846;42.654;23.314;2022-12-18T05:54:29;3.25;;;2.70;;
31336;SDS011;22846;42.654;23.314;2022-12-18T05:56:56;3.60;;;2.65;;
31336;SDS011;22846;42.654;23.314;2022-12-18T05:59:22;3.72;;;2.97;;
31336;SDS011;22846;42.654;23.314;2022-12-18T06:01:47;3.28;;;2.63;;
31336;SDS011;22846;42.654;23.314;2022-12-18T06:04:13;3.03;;;2.50;;
31336;SDS011;22846;42.654;23.314;2022-12-18T06:06:38;2.90;;;2.60;;
31336;SDS011;22846;42.654;23.314;2022-12-18T06:09:04;2.70;;;2.30;;
31336;SDS011;22846;42.654;23.314;2022-12-18T06:11:33;2.83;;;2.53;;
31336;SDS011;22846;42.654;23.314;2022-12-18T06:14:00;3.25;;;2.70;;
31336;SDS011;22846;42.654;23.314;2022-12-18T06:16:26;3.13;;;2.75;;
31336;SDS011;22846;42.654;23.314;2022-12-18T06:18:53;3.25;;;2.67;;
31336;SDS011;22846;42.654;23.314;2022-12-18T06:21:20;3.58;;;2.67;;
31336;SDS011;22846;42.654;23.314;2022-12-18T06:23:46;3.30;;;2.67;;
31336;SDS011;22846;42.654;23.314;2022-12-18T06:26:12;2.60;;;2.38;;
31336;SDS011;22846;42.654;23.314;2022-12-18T06:28:38;4.40;;;2.42;;
31336;SDS011;22846;42.654;23.314;2022-12-18T06:31:04;3.00;;;2.53;;
31336;SDS011;22846;42.654;23.314;2022-12-18T06:33:30;2.83;;;2.33;;
31336;SDS011;22846;42.654;23.314;2022-12-18T06:36:03;3.22;;;2.63;;
31336;SDS011;22846;42.654;23.314;2022-12-18T06:38:39;2.50;;;2.30;;
31336;SDS011;22846;42.654;23.314;2022-12-18T06:41:07;3.20;;;2.60;;
31336;SDS011;22846;42.654;23.314;2022-12-18T06:43:34;3.10;;;2.67;;
31336;SDS011;22846;42.654;23.314;2022-12-18T06:45:59;2.45;;;2.25;;
31336;SDS011;22846;42.654;23.314;2022-12-18T06:48:25;3.47;;;2.70;;
31336;SDS011;22846;42.654;23.314;2022-12-18T06:50:51;3.72;;;2.60;;
31336;SDS011;22846;42.654;23.314;2022-12-18T06:53:16;3.90;;;2.72;;
31336;SDS011;22846;42.654;23.314;2022-12-18T06:55:42;2.67;;;2.33;;
31336;SDS011;22846;42.654;23.314;2022-12-18T06:58:08;3.00;;;2.42;;
31336;SDS011;22846;42.654;23.314;2022-12-18T07:00:33;4.93;;;2.58;;
31336;SDS011;22846;42.654;23.314;2022-12-18T07:02:59;3.10;;;2.70;;
31336;SDS011;22846;42.654;23.314;2022-12-18T07:05:24;2.60;;;2.17;;
31336;SDS011;22846;42.654;23.314;2022-12-18T07:07:49;3.55;;;2.83;;
31336;SDS011;22846;42.654;23.314;2022-12-18T07:10:15;3.15;;;2.55;;
31336;SDS011;22846;42.654;23.314;2022-12-18T07:12:40;3.00;;;2.50;;
31336;SDS011;22846;42.654;23.314;2022-12-18T07:15:06;2.80;;;2.50;;
31336;SDS011;22846;42.654;23.314;2022-12-18T07:17:32;2.63;;;2.22;;
31336;SDS011;22846;42.654;23.314;2022-12-18T07:19:57;2.65;;;2.22;;
31336;SDS011;22846;42.654;23.314;2022-12-18T07:22:23;2.90;;;2.38;;
31336;SDS011;22846;42.654;23.314;2022-12-18T07:24:50;3.13;;;2.42;;
31336;SDS011;22846;42.654;23.314;2022-12-18T07:27:16;3.13;;;2.60;;
31336;SDS011;22846;42.654;23.314;2022-12-18T07:29:41;2.58;;;2.38;;
31336;SDS011;22846;42.654;23.314;2022-12-18T07:32:07;3.53;;;2.70;;
31336;SDS011;22846;42.654;23.314;2022-12-18T07:34:33;2.83;;;2.30;;
31336;SDS011;22846;42.654;23.314;2022-12-18T07:36:58;2.70;;;2.10;;
31336;SDS011;22846;42.654;23.314;2022-12-18T07:39:24;2.08;;;1.88;;
31336;SDS011;22846;42.654;23.314;2022-12-18T07:41:49;2.72;;;2.42;;
31336;SDS011;22846;42.654;23.314;2022-12-18T07:44:33;2.90;;;2.47;;
31336;SDS011;22846;42.654;23.314;2022-12-18T07:46:59;3.25;;;2.53;;
31336;SDS011;22846;42.654;23.314;2022-12-18T07:49:24;7.10;;;2.42;;
31336;SDS011;22846;42.654;23.314;2022-12-18T07:51:49;2.45;;;2.20;;
31336;SDS011;22846;42.654;23.314;2022-12-18T07:54:15;2.42;;;2.20;;
31336;SDS011;22846;42.654;23.314;2022-12-18T07:56:40;2.97;;;2.22;;
31336;SDS011;22846;42.654;23.314;2022-12-18T07:59:05;4.95;;;2.50;;
31336;SDS011;22846;42.654;23.314;2022-12-18T08:01:31;5.38;;;2.35;;
31336;SDS011;22846;42.654;23.314;2022-12-18T08:03:57;4.00;;;2.22;;
31336;SDS011;22846;42.654;23.314;2022-12-18T08:06:23;3.97;;;2.30;;
31336;SDS011;22846;42.654;23.314;2022-12-18T08:08:50;5.05;;;2.30;;
31336;SDS011;22846;42.654;23.314;2022-12-18T08:11:16;5.65;;;2.10;;
31336;SDS011;22846;42.654;23.314;2022-12-18T08:13:41;5.93;;;2.40;;
31336;SDS011;22846;42.654;23.314;2022-12-18T08:16:07;8.43;;;2.90;;
31336;SDS011;22846;42.654;23.314;2022-12-18T08:18:33;3.38;;;2.05;;
31336;SDS011;22846;42.654;23.314;2022-12-18T08:21:08;3.67;;;2.00;;
31336;SDS011;22846;42.654;23.314;2022-12-18T08:23:38;6.85;;;2.65;;
31336;SDS011;22846;42.654;23.314;2022-12-18T08:26:04;2.78;;;2.15;;
31336;SDS011;22846;42.654;23.314;2022-12-18T08:28:30;20.65;;;13.35;;
31336;SDS011;22846;42.654;23.314;2022-12-18T08:30:55;45.70;;;31.08;;
31336;SDS011;22846;42.654;23.314;2022-12-18T08:33:21;44.58;;;31.55;;
31336;SDS011;22846;42.654;23.314;2022-12-18T08:35:46;39.28;;;25.05;;
31336;SDS011;22846;42.654;23.314;2022-12-18T08:38:11;34.90;;;25.40;;
31336;SDS011;22846;42.654;23.314;2022-12-18T08:40:37;30.13;;;20.58;;
31336;SDS011;22846;42.654;23.314;2022-12-18T08:43:02;28.40;;;20.08;;
31336;SDS011;22846;42.654;23.314;2022-12-18T08:45:46;29.67;;;19.90;;
31336;SDS011;22846;42.654;23.314;2022-12-18T08:48:12;24.90;;;17.00;;
31336;SDS011;22846;42.654;23.314;2022-12-18T08:50:37;22.75;;;16.80;;
31336;SDS011;22846;42.654;23.314;2022-12-18T08:53:03;20.30;;;14.98;;
31336;SDS011;22846;42.654;23.314;2022-12-18T08:55:28;19.90;;;14.68;;
31336;SDS011;22846;42.654;23.314;2022-12-18T08:57:54;17.70;;;12.60;;
31336;SDS011;22846;42.654;23.314;2022-12-18T09:00:19;17.10;;;12.57;;
31336;SDS011;22846;42.654;23.314;2022-12-18T09:02:45;16.52;;;12.13;;
31336;SDS011;22846;42.654;23.314;2022-12-18T09:05:10;15.68;;;12.07;;
31336;SDS011;22846;42.654;23.314;2022-12-18T09:07:36;15.13;;;11.30;;
31336;SDS011;22846;42.654;23.314;2022-12-18T09:10:01;13.07;;;10.15;;
31336;SDS011;22846;42.654;23.314;2022-12-18T09:12:27;13.48;;;10.23;;
31336;SDS011;22846;42.654;23.314;2022-12-18T09:14:52;14.10;;;10.20;;
31336;SDS011;22846;42.654;23.314;2022-12-18T09:17:17;13.45;;;9.95;;
31336;SDS011;22846;42.654;23.314;2022-12-18T09:19:43;12.68;;;9.68;;
31336;SDS011;22846;42.654;23.314;2022-12-18T09:22:08;11.07;;;9.27;;
31336;SDS011;22846;42.654;23.314;2022-12-18T09:24:34;12.85;;;9.23;;
31336;SDS011;22846;42.654;23.314;2022-12-18T09:27:00;13.65;;;9.18;;
31336;SDS011;22846;42.654;23.314;2022-12-18T09:29:25;11.70;;;8.68;;
31336;SDS011;22846;42.654;23.314;2022-12-18T09:31:51;12.65;;;8.70;;
31336;SDS011;22846;42.654;23.314;2022-12-18T09:34:16;12.68;;;8.68;;
31336;SDS011;22846;42.654;23.314;2022-12-18T09:36:42;12.23;;;8.38;;
31336;SDS011;22846;42.654;23.314;2022-12-18T09:39:08;10.68;;;7.85;;
31336;SDS011;22846;42.654;23.314;2022-12-18T09:44:16;10.90;;;8.40;;
31336;SDS011;22846;42.654;23.314;2022-12-18T09:46:44;9.80;;;7.75;;
31336;SDS011;22846;42.654;23.314;2022-12-18T09:49:15;10.63;;;7.43;;
31336;SDS011;22846;42.654;23.314;2022-12-18T09:51:47;9.45;;;7.57;;
31336;SDS011;22846;42.654;23.314;2022-12-18T09:54:25;9.10;;;7.35;;
31336;SDS011;22846;42.654;23.314;2022-12-18T09:56:58;9.73;;;7.25;;
31336;SDS011;22846;42.654;23.314;2022-12-18T09:59:25;8.27;;;6.75;;
31336;SDS011;22846;42.654;23.314;2022-12-18T10:01:56;7.53;;;6.43;;
31336;SDS011;22846;42.654;23.314;2022-12-18T10:04:21;9.52;;;7.28;;
31336;SDS011;22846;42.654;23.314;2022-12-18T10:14:40;8.25;;;5.82;;
31336;SDS011;22846;42.654;23.314;2022-12-18T10:20:05;8.05;;;6.53;;
31336;SDS011;22846;42.654;23.314;2022-12-18T10:25:23;8.25;;;6.10;;
31336;SDS011;22846;42.654;23.314;2022-12-18T10:27:57;7.82;;;6.13;;
31336;SDS011;22846;42.654;23.314;2022-12-18T10:30:32;8.35;;;6.28;;
31336;SDS011;22846;42.654;23.314;2022-12-18T10:33:00;7.88;;;6.18;;
31336;SDS011;22846;42.654;23.314;2022-12-18T10:35:27;7.38;;;6.07;;
31336;SDS011;22846;42.654;23.314;2022-12-18T10:37:59;7.75;;;6.20;;
31336;SDS011;22846;42.654;23.314;2022-12-18T10:40:27;7.35;;;5.97;;
31336;SDS011;22846;42.654;23.314;2022-12-18T10:43:03;7.38;;;6.00;;
31336;SDS011;22846;42.654;23.314;2022-12-18T10:45:38;9.85;;;5.70;;
31336;SDS011;22846;42.654;23.314;2022-12-18T10:48:04;7.07;;;5.57;;
31336;SDS011;22846;42.654;23.314;2022-12-18T10:50:42;8.07;;;5.97;;
31336;SDS011;22846;42.654;23.314;2022-12-18T10:53:13;7.00;;;5.35;;
31336;SDS011;22846;42.654;23.314;2022-12-18T10:55:45;7.27;;;5.70;;
31336;SDS011;22846;42.654;23.314;2022-12-18T11:06:06;7.28;;;5.38;;
31336;SDS011;22846;42.654;23.314;2022-12-18T11:08:32;6.55;;;5.25;;
31336;SDS011;22846;42.654;23.314;2022-12-18T11:10:57;6.80;;;4.93;;
31336;SDS011;22846;42.654;23.314;2022-12-18T11:13:23;6.57;;;5.13;;
31336;SDS011;22846;42.654;23.314;2022-12-18T11:15:51;6.43;;;5.00;;
31336;SDS011;22846;42.654;23.314;2022-12-18T11:20:58;6.80;;;4.93;;
31336;SDS011;22846;42.654;23.314;2022-12-18T11:23:30;6.40;;;4.95;;
31336;SDS011;22846;42.654;23.314;2022-12-18T11:25:57;5.95;;;4.70;;
31336;SDS011;22846;42.654;23.314;2022-12-18T11:28:37;6.00;;;4.78;;
31336;SDS011;22846;42.654;23.314;2022-12-18T11:33:34;5.70;;;4.60;;
31336;SDS011;22846;42.654;23.314;2022-12-18T11:36:04;5.93;;;4.85;;
31336;SDS011;22846;42.654;23.314;2022-12-18T11:38:37;5.45;;;4.35;;
31336;SDS011;22846;42.654;23.314;2022-12-18T11:44:29;5.95;;;4.90;;
31336;SDS011;22846;42.654;23.314;2022-12-18T11:47:08;6.05;;;4.97;;
31336;SDS011;22846;42.654;23.314;2022-12-18T11:49:42;4.90;;;4.13;;
31336;SDS011;22846;42.654;23.314;2022-12-18T11:52:15;6.55;;;4.72;;
31336;SDS011;22846;42.654;23.314;2022-12-18T11:54:44;6.78;;;4.13;;
31336;SDS011;22846;42.654;23.314;2022-12-18T12:05:40;5.90;;;4.63;;
31336;SDS011;22846;42.654;23.314;2022-12-18T12:08:17;5.32;;;4.28;;
31336;SDS011;22846;42.654;23.314;2022-12-18T12:13:47;5.38;;;4.40;;
31336;SDS011;22846;42.654;23.314;2022-12-18T12:16:22;4.75;;;4.03;;
31336;SDS011;22846;42.654;23.314;2022-12-18T12:19:00;5.00;;;4.05;;
31336;SDS011;22846;42.654;23.314;2022-12-18T12:26:49;5.00;;;3.78;;
31336;SDS011;22846;42.654;23.314;2022-12-18T12:32:01;4.57;;;3.63;;
31336;SDS011;22846;42.654;23.314;2022-12-18T12:34:43;4.10;;;3.70;;
31336;SDS011;22846;42.654;23.314;2022-12-18T12:37:41;4.30;;;3.72;;
31336;SDS011;22846;42.654;23.314;2022-12-18T12:40:07;5.18;;;4.00;;
31336;SDS011;22846;42.654;23.314;2022-12-18T12:42:43;4.05;;;3.58;;
31336;SDS011;22846;42.654;23.314;2022-12-18T12:49:02;5.00;;;3.85;;
31336;SDS011;22846;42.654;23.314;2022-12-18T12:51:28;8.70;;;4.32;;
31336;SDS011;22846;42.654;23.314;2022-12-18T12:53:59;5.78;;;3.65;;
31336;SDS011;22846;42.654;23.314;2022-12-18T12:56:30;8.00;;;3.92;;
31336;SDS011;22846;42.654;23.314;2022-12-18T13:07:50;44.60;;;30.17;;
31336;SDS011;22846;42.654;23.314;2022-12-18T13:12:54;37.47;;;24.40;;
31336;SDS011;22846;42.654;23.314;2022-12-18T13:18:04;31.55;;;20.60;;
31336;SDS011;22846;42.654;23.314;2022-12-18T13:20:46;29.00;;;19.10;;
31336;SDS011;22846;42.654;23.314;2022-12-18T13:23:27;35.75;;;18.73;;
31336;SDS011;22846;42.654;23.314;2022-12-18T13:25:55;21.48;;;14.93;;
31336;SDS011;22846;42.654;23.314;2022-12-18T13:35:53;21.33;;;13.48;;
31336;SDS011;22846;42.654;23.314;2022-12-18T13:38:37;17.50;;;12.63;;
31336;SDS011;22846;42.654;23.314;2022-12-18T13:43:42;13.43;;;10.90;;
31336;SDS011;22846;42.654;23.314;2022-12-18T13:48:41;20.15;;;11.43;;
31336;SDS011;22846;42.654;23.314;2022-12-18T13:51:17;15.93;;;10.70;;
31336;SDS011;22846;42.654;23.314;2022-12-18T13:53:50;16.48;;;10.15;;
31336;SDS011;22846;42.654;23.314;2022-12-18T13:59:02;16.65;;;9.80;;
31336;SDS011;22846;42.654;23.314;2022-12-18T14:01:42;17.05;;;9.85;;
31336;SDS011;22846;42.654;23.314;2022-12-18T14:04:32;14.18;;;10.07;;
31336;SDS011;22846;42.654;23.314;2022-12-18T14:07:10;14.25;;;9.45;;
31336;SDS011;22846;42.654;23.314;2022-12-18T14:09:41;16.77;;;9.60;;
31336;SDS011;22846;42.654;23.314;2022-12-18T14:15:06;16.30;;;9.00;;
31336;SDS011;22846;42.654;23.314;2022-12-18T14:17:45;47.63;;;27.42;;
31336;SDS011;22846;42.654;23.314;2022-12-18T14:20:15;59.22;;;38.78;;
31336;SDS011;22846;42.654;23.314;2022-12-18T14:22:45;40.47;;;25.23;;
31336;SDS011;22846;42.654;23.314;2022-12-18T14:25:17;42.97;;;29.10;;
31336;SDS011;22846;42.654;23.314;2022-12-18T14:27:46;46.83;;;29.48;;
31336;SDS011;22846;42.654;23.314;2022-12-18T14:30:25;39.40;;;26.27;;
31336;SDS011;22846;42.654;23.314;2022-12-18T14:35:32;31.13;;;19.60;;
31336;SDS011;22846;42.654;23.314;2022-12-18T14:38:10;31.70;;;20.33;;
31336;SDS011;22846;42.654;23.314;2022-12-18T14:40:44;32.95;;;19.52;;
31336;SDS011;22846;42.654;23.314;2022-12-18T14:43:10;31.27;;;19.38;;
31336;SDS011;22846;42.654;23.314;2022-12-18T14:45:36;31.05;;;18.40;;
31336;SDS011;22846;42.654;23.314;2022-12-18T14:48:07;30.38;;;17.80;;
31336;SDS011;22846;42.654;23.314;2022-12-18T14:50:36;30.87;;;18.97;;
31336;SDS011;22846;42.654;23.314;2022-12-18T14:53:01;29.88;;;16.98;;
31336;SDS011;22846;42.654;23.314;2022-12-18T14:55:27;29.17;;;17.95;;
31336;SDS011;22846;42.654;23.314;2022-12-18T14:57:53;40.90;;;28.67;;
31336;SDS011;22846;42.654;23.314;2022-12-18T15:00:21;70.13;;;47.08;;
31336;SDS011;22846;42.654;23.314;2022-12-18T15:02:57;62.83;;;43.05;;
31336;SDS011;22846;42.654;23.314;2022-12-18T15:05:27;57.15;;;39.78;;
31336;SDS011;22846;42.654;23.314;2022-12-18T15:07:55;53.22;;;38.60;;
31336;SDS011;22846;42.654;23.314;2022-12-18T15:10:27;56.05;;;38.72;;
31336;SDS011;22846;42.654;23.314;2022-12-18T15:18:01;68.00;;;33.33;;
31336;SDS011;22846;42.654;23.314;2022-12-18T15:20:27;49.28;;;32.90;;
31336;SDS011;22846;42.654;23.314;2022-12-18T15:22:56;47.90;;;32.83;;
31336;SDS011;22846;42.654;23.314;2022-12-18T15:27:57;46.50;;;30.60;;
31336;SDS011;22846;42.654;23.314;2022-12-18T15:30:24;42.67;;;28.48;;
31336;SDS011;22846;42.654;23.314;2022-12-18T15:32:52;39.03;;;26.23;;
31336;SDS011;22846;42.654;23.314;2022-12-18T15:35:56;36.03;;;25.67;;
31336;SDS011;22846;42.654;23.314;2022-12-18T15:38:23;35.47;;;24.98;;
31336;SDS011;22846;42.654;23.314;2022-12-18T15:40:49;26.55;;;17.67;;
31336;SDS011;22846;42.654;23.314;2022-12-18T15:43:14;33.13;;;22.00;;
31336;SDS011;22846;42.654;23.314;2022-12-18T15:45:59;39.25;;;20.83;;
31336;SDS011;22846;42.654;23.314;2022-12-18T15:48:29;31.42;;;20.05;;
31336;SDS011;22846;42.654;23.314;2022-12-18T15:50:56;36.90;;;20.40;;
31336;SDS011;22846;42.654;23.314;2022-12-18T15:53:24;27.50;;;18.48;;
31336;SDS011;22846;42.654;23.314;2022-12-18T15:55:51;30.42;;;17.10;;
31336;SDS011;22846;42.654;23.314;2022-12-18T15:58:35;24.63;;;17.15;;
31336;SDS011;22846;42.654;23.314;2022-12-18T16:01:01;25.15;;;15.65;;
31336;SDS011;22846;42.654;23.314;2022-12-18T16:03:27;25.45;;;15.60;;
31336;SDS011;22846;42.654;23.314;2022-12-18T16:05:52;26.60;;;17.40;;
31336;SDS011;22846;42.654;23.314;2022-12-18T16:08:17;35.05;;;23.52;;
31336;SDS011;22846;42.654;23.314;2022-12-18T16:10:43;41.33;;;28.60;;
31336;SDS011;22846;42.654;23.314;2022-12-18T16:13:11;46.25;;;30.92;;
31336;SDS011;22846;42.654;23.314;2022-12-18T16:15:40;44.13;;;30.45;;
31336;SDS011;22846;42.654;23.314;2022-12-18T16:18:05;37.13;;;27.85;;
31336;SDS011;22846;42.654;23.314;2022-12-18T16:20:32;40.13;;;26.65;;
31336;SDS011;22846;42.654;23.314;2022-12-18T16:22:58;36.38;;;22.67;;
31336;SDS011;22846;42.654;23.314;2022-12-18T16:25:25;34.08;;;22.52;;
31336;SDS011;22846;42.654;23.314;2022-12-18T16:27:54;34.22;;;22.48;;
31336;SDS011;22846;42.654;23.314;2022-12-18T16:30:21;31.27;;;22.40;;
31336;SDS011;22846;42.654;23.314;2022-12-18T16:32:53;28.63;;;21.20;;
31336;SDS011;22846;42.654;23.314;2022-12-18T16:35:19;24.25;;;19.55;;
31336;SDS011;22846;42.654;23.314;2022-12-18T16:37:45;30.67;;;19.80;;
31336;SDS011;22846;42.654;23.314;2022-12-18T16:40:11;43.50;;;29.27;;
31336;SDS011;22846;42.654;23.314;2022-12-18T16:42:40;36.80;;;24.95;;
31336;SDS011;22846;42.654;23.314;2022-12-18T16:45:08;37.53;;;23.80;;
31336;SDS011;22846;42.654;23.314;2022-12-18T16:47:36;25.63;;;19.65;;
31336;SDS011;22846;42.654;23.314;2022-12-18T16:50:02;32.50;;;20.92;;
31336;SDS011;22846;42.654;23.314;2022-12-18T16:52:28;29.83;;;19.95;;
31336;SDS011;22846;42.654;23.314;2022-12-18T16:54:54;27.23;;;19.27;;